createdAt,value
2023-05-12T00:01:01.900Z,8.80
2023-05-12T00:03:30.188Z,8.70
2023-05-12T00:06:06.767Z,8.43
2023-05-12T00:08:34.851Z,9.33
2023-05-12T00:11:11.937Z,8.73
2023-05-12T00:13:40.433Z,8.43
2023-05-12T00:16:09.244Z,7.37
2023-05-12T00:18:37.922Z,7.50
2023-05-12T00:21:08.760Z,8.87
2023-05-12T00:23:36.976Z,8.03
2023-05-12T00:26:07.463Z,8.97
2023-05-12T00:28:36.288Z,8.17
2023-05-12T00:31:04.714Z,9.53
2023-05-12T00:33:33.677Z,9.40
2023-05-12T00:36:04.006Z,8.53
2023-05-12T00:38:34.251Z,9.40
2023-05-12T00:41:02.143Z,10.47
2023-05-12T00:43:30.302Z,10.30
2023-05-12T00:45:58.585Z,9.93
2023-05-12T00:48:27.119Z,11.30
2023-05-12T00:50:55.879Z,11.07
2023-05-12T00:53:24.531Z,11.77
2023-05-12T00:55:54.143Z,11.43
2023-05-12T00:58:22.186Z,11.63
2023-05-12T01:00:53.655Z,11.10
2023-05-12T01:03:24.839Z,10.93
2023-05-12T01:06:26.406Z,10.90
2023-05-12T01:08:54.966Z,10.77
2023-05-12T01:11:23.826Z,10.50
2023-05-12T01:13:52.722Z,15.33
2023-05-12T01:16:24.402Z,12.03
2023-05-12T01:18:55.735Z,10.60
2023-05-12T01:21:24.056Z,12.10
2023-05-12T01:23:59.902Z,9.40
2023-05-12T01:26:32.900Z,10.20
2023-05-12T01:29:05.141Z,11.30
2023-05-12T01:31:33.848Z,10.33
2023-05-12T01:34:01.835Z,8.73
2023-05-12T01:36:29.975Z,9.13
2023-05-12T01:39:00.702Z,11.47
2023-05-12T01:41:29.420Z,11.57
2023-05-12T01:43:59.224Z,11.77
2023-05-12T01:46:27.570Z,12.07
2023-05-12T01:48:55.869Z,10.70
2023-05-12T01:51:23.935Z,12.53
2023-05-12T01:53:52.020Z,11.60
2023-05-12T01:56:20.389Z,12.90
2023-05-12T01:58:48.970Z,11.60
2023-05-12T02:01:18.806Z,11.63
2023-05-12T02:03:46.982Z,12.20
2023-05-12T02:06:15.257Z,12.40
2023-05-12T02:08:43.528Z,13.33
2023-05-12T02:11:11.974Z,13.80
2023-05-12T02:13:40.439Z,14.17
2023-05-12T02:16:08.746Z,14.20
2023-05-12T02:18:40.082Z,15.53
2023-05-12T02:21:08.264Z,14.90
2023-05-12T02:23:36.759Z,14.90
2023-05-12T02:26:05.024Z,14.97
2023-05-12T02:28:33.745Z,14.73
2023-05-12T02:31:02.021Z,15.67
2023-05-12T02:33:30.632Z,14.70
2023-05-12T02:35:58.942Z,15.43
2023-05-12T02:38:27.988Z,14.90
2023-05-12T02:40:56.536Z,14.70
2023-05-12T02:43:24.795Z,15.03
2023-05-12T02:45:53.130Z,13.63
2023-05-12T02:48:21.686Z,14.53
2023-05-12T02:50:49.974Z,14.33
2023-05-12T02:53:18.074Z,14.90
2023-05-12T02:55:46.347Z,14.83
2023-05-12T02:58:14.587Z,13.77
2023-05-12T03:00:42.655Z,15.73
2023-05-12T03:03:10.961Z,14.97
2023-05-12T03:05:39.212Z,15.47
2023-05-12T03:08:07.836Z,16.13
2023-05-12T03:10:36.519Z,14.87
2023-05-12T03:13:04.533Z,14.97
2023-05-12T03:15:32.748Z,16.00
2023-05-12T03:18:00.920Z,15.32
2023-05-12T03:20:28.929Z,16.67
2023-05-12T03:22:57.088Z,20.05
2023-05-12T03:25:25.099Z,19.63
2023-05-12T03:27:53.534Z,19.98
2023-05-12T03:30:24.617Z,21.27
2023-05-12T03:32:52.804Z,21.60
2023-05-12T03:35:21.167Z,22.42
2023-05-12T03:37:49.160Z,22.45
2023-05-12T03:40:19.220Z,20.33
2023-05-12T03:42:47.451Z,21.00
2023-05-12T03:45:15.928Z,22.20
2023-05-12T03:47:44.614Z,21.38
2023-05-12T03:50:13.279Z,21.55
2023-05-12T03:52:41.955Z,21.83
2023-05-12T03:55:10.756Z,20.52
2023-05-12T03:57:38.852Z,21.25
2023-05-12T04:00:07.644Z,20.50
2023-05-12T04:02:36.598Z,19.85
2023-05-12T04:05:08.507Z,20.33
2023-05-12T04:07:38.927Z,19.48
2023-05-12T04:10:07.567Z,19.33
2023-05-12T04:12:35.632Z,17.85
2023-05-12T04:15:03.994Z,17.45
2023-05-12T04:17:32.865Z,17.30
2023-05-12T04:20:01.121Z,16.70
2023-05-12T04:22:31.966Z,17.83
2023-05-12T04:25:00.034Z,17.13
2023-05-12T04:27:30.913Z,14.98
2023-05-12T04:29:59.003Z,14.30
2023-05-12T04:32:26.910Z,14.90
2023-05-12T04:34:57.091Z,12.63
2023-05-12T04:37:25.023Z,12.05
2023-05-12T04:39:53.892Z,13.90
2023-05-12T04:42:21.955Z,11.65
2023-05-12T04:44:50.386Z,11.30
2023-05-12T04:47:18.717Z,11.68
2023-05-12T04:49:47.353Z,9.43
2023-05-12T04:52:15.832Z,9.85
2023-05-12T04:54:44.637Z,9.00
2023-05-12T04:57:12.564Z,8.65
2023-05-12T04:59:41.559Z,8.65
2023-05-12T05:02:12.143Z,8.23
2023-05-12T05:04:44.806Z,8.82
2023-05-12T05:07:13.030Z,8.77
2023-05-12T05:09:41.050Z,8.75
2023-05-12T05:12:09.327Z,8.45
2023-05-12T05:14:37.394Z,8.50
2023-05-12T05:17:08.524Z,9.00
2023-05-12T05:19:50.931Z,11.48
2023-05-12T05:22:23.774Z,11.75
2023-05-12T05:24:52.369Z,10.20
2023-05-12T05:27:21.249Z,10.73
2023-05-12T05:29:49.716Z,11.07
2023-05-12T05:32:17.699Z,10.40
2023-05-12T05:34:45.888Z,9.75
2023-05-12T05:37:14.040Z,9.82
2023-05-12T05:39:42.456Z,9.95
2023-05-12T05:42:12.316Z,9.60
2023-05-12T05:44:43.991Z,10.10
2023-05-12T05:47:14.593Z,10.68
2023-05-12T05:49:43.002Z,11.02
2023-05-12T05:52:11.137Z,10.27
2023-05-12T05:54:39.478Z,10.68
2023-05-12T05:57:10.151Z,11.27
2023-05-12T05:59:39.125Z,11.45
2023-05-12T06:02:07.626Z,10.55
2023-05-12T06:04:36.250Z,12.02
2023-05-12T06:07:07.234Z,11.55
2023-05-12T06:09:36.455Z,11.40
2023-05-12T06:12:04.967Z,11.23
2023-05-12T06:14:33.012Z,11.27
2023-05-12T06:17:01.309Z,11.23
2023-05-12T06:19:31.165Z,11.65
2023-05-12T06:21:59.803Z,11.45
2023-05-12T06:24:28.147Z,9.77
2023-05-12T06:26:56.817Z,9.93
2023-05-12T06:29:25.030Z,10.30
2023-05-12T06:31:54.326Z,9.68
2023-05-12T06:34:22.901Z,9.13
2023-05-12T06:36:52.130Z,10.13
2023-05-12T06:39:21.678Z,8.30
2023-05-12T06:41:49.991Z,9.02
2023-05-12T06:44:18.689Z,8.43
2023-05-12T06:46:46.953Z,8.63
2023-05-12T06:49:14.673Z,8.45
2023-05-12T06:51:43.122Z,7.82
2023-05-12T06:54:11.379Z,7.93
2023-05-12T06:56:39.427Z,6.65
2023-05-12T06:59:07.926Z,7.20
2023-05-12T07:01:37.102Z,6.38
2023-05-12T07:04:05.944Z,5.32
2023-05-12T07:06:35.837Z,5.80
2023-05-12T07:09:04.952Z,5.20
2023-05-12T07:11:33.554Z,4.22
2023-05-12T07:14:01.754Z,4.25
2023-05-12T07:16:30.267Z,2.88
2023-05-12T07:18:58.876Z,2.70
2023-05-12T07:21:27.780Z,2.73
2023-05-12T07:23:56.814Z,2.53
2023-05-12T07:26:24.832Z,3.33
2023-05-12T07:28:53.917Z,2.40
2023-05-12T07:31:22.488Z,2.37
2023-05-12T07:33:50.571Z,2.03
2023-05-12T07:36:21.322Z,2.57
2023-05-12T07:38:50.870Z,2.80
2023-05-12T07:41:19.347Z,2.20
2023-05-12T07:43:47.575Z,1.90
2023-05-12T07:46:15.632Z,1.93
2023-05-12T07:48:44.030Z,2.00
2023-05-12T07:51:12.119Z,2.03
2023-05-12T07:53:40.128Z,2.33
2023-05-12T07:56:08.854Z,2.90
2023-05-12T07:58:37.490Z,3.30
2023-05-12T08:01:07.184Z,3.17
2023-05-12T08:03:39.964Z,3.00
2023-05-12T08:06:08.303Z,2.70
2023-05-12T08:08:36.878Z,2.57
2023-05-12T08:11:05.191Z,2.40
2023-05-12T08:13:33.801Z,2.13
2023-05-12T08:16:01.718Z,2.23
2023-05-12T08:18:29.876Z,1.90
2023-05-12T08:20:58.879Z,2.13
2023-05-12T08:23:29.898Z,1.90
2023-05-12T08:25:59.342Z,1.97
2023-05-12T08:28:27.370Z,1.80
2023-05-12T08:30:55.269Z,2.13
2023-05-12T08:33:24.364Z,2.33
2023-05-12T08:35:52.627Z,2.47
2023-05-12T08:38:29.886Z,2.30
2023-05-12T08:41:07.268Z,2.60
2023-05-12T08:43:46.813Z,2.60
2023-05-12T08:46:15.806Z,3.50
2023-05-12T08:48:46.773Z,4.20
2023-05-12T08:51:14.941Z,4.83
2023-05-12T08:53:43.583Z,3.80
2023-05-12T08:58:46.809Z,3.83
2023-05-12T09:01:15.341Z,3.27
2023-05-12T09:03:45.723Z,3.80
2023-05-12T09:06:13.883Z,4.03
2023-05-12T09:08:42.241Z,4.30
2023-05-12T09:11:13.904Z,3.97
2023-05-12T09:13:56.002Z,4.17
2023-05-12T09:16:26.014Z,3.83
2023-05-12T09:18:55.361Z,5.47
2023-05-12T09:21:23.821Z,4.30
2023-05-12T09:23:55.910Z,5.27
2023-05-12T09:26:25.905Z,4.23
2023-05-12T09:28:56.666Z,4.20
2023-05-12T09:31:26.453Z,4.17
2023-05-12T09:33:54.642Z,4.03
2023-05-12T09:36:24.932Z,4.30
2023-05-12T09:39:07.708Z,5.00
2023-05-12T09:41:41.105Z,4.20
2023-05-12T09:44:10.570Z,3.77
2023-05-12T09:46:40.153Z,3.90
2023-05-12T09:49:09.769Z,3.63
2023-05-12T09:51:38.274Z,4.03
2023-05-12T09:54:09.481Z,3.77
2023-05-12T09:56:38.743Z,3.30
2023-05-12T09:59:07.271Z,2.93
2023-05-12T10:01:36.289Z,3.47
2023-05-12T10:04:05.952Z,3.43
2023-05-12T10:06:38.685Z,3.10
2023-05-12T10:09:28.447Z,3.27
2023-05-12T10:11:57.115Z,3.07
2023-05-12T10:14:25.385Z,2.17
2023-05-12T10:16:56.792Z,2.20
2023-05-12T10:19:27.614Z,2.50
2023-05-12T10:21:58.355Z,2.80
2023-05-12T10:24:28.056Z,2.60
2023-05-12T10:26:59.838Z,3.13
2023-05-12T10:29:30.293Z,2.60
2023-05-12T10:32:00.033Z,2.63
2023-05-12T10:34:34.498Z,2.60
2023-05-12T10:37:08.587Z,2.57
2023-05-12T10:39:38.473Z,2.90
2023-05-12T10:42:07.716Z,2.60
2023-05-12T10:44:37.044Z,2.57
2023-05-12T10:47:15.017Z,2.90
2023-05-12T10:49:43.636Z,5.50
2023-05-12T10:52:13.394Z,3.23
2023-05-12T10:54:45.901Z,2.83
2023-05-12T10:57:21.170Z,4.60
2023-05-12T10:59:54.833Z,2.70
2023-05-12T11:02:32.615Z,3.30
2023-05-12T11:05:05.203Z,2.10
2023-05-12T11:07:35.273Z,2.20
2023-05-12T11:10:06.499Z,2.40
2023-05-12T11:12:36.699Z,2.30
2023-05-12T11:15:07.241Z,2.10
2023-05-12T11:18:02.801Z,2.40
2023-05-12T11:20:31.293Z,2.33
2023-05-12T11:22:59.986Z,1.97
2023-05-12T11:25:28.748Z,2.10
2023-05-12T11:27:57.137Z,2.40
2023-05-12T11:30:26.661Z,2.70
2023-05-12T11:33:02.614Z,2.67
2023-05-12T11:35:32.602Z,2.80
2023-05-12T11:38:03.352Z,3.13
2023-05-12T11:40:31.626Z,2.73
2023-05-12T11:43:10.495Z,3.10
2023-05-12T11:45:38.617Z,2.70
2023-05-12T11:48:12.606Z,7.73
2023-05-12T11:50:48.118Z,2.10
2023-05-12T11:53:19.545Z,2.30
2023-05-12T11:55:53.402Z,2.47
2023-05-12T11:58:27.267Z,2.37
2023-05-12T12:00:55.918Z,2.53
2023-05-12T12:03:25.637Z,2.60
2023-05-12T12:06:04.828Z,3.00
2023-05-12T12:08:34.571Z,2.83
2023-05-12T12:11:04.713Z,2.43
2023-05-12T12:13:33.458Z,2.37
2023-05-12T12:16:01.586Z,2.30
2023-05-12T12:18:29.748Z,2.10
2023-05-12T12:20:58.435Z,2.13
2023-05-12T12:23:27.260Z,2.00
2023-05-12T12:25:58.598Z,2.23
2023-05-12T12:28:29.115Z,3.13
2023-05-12T12:30:57.565Z,2.20
2023-05-12T12:33:25.792Z,2.10
2023-05-12T12:35:54.115Z,1.93
2023-05-12T12:38:22.239Z,2.17
2023-05-12T12:40:50.311Z,2.30
2023-05-12T12:43:18.139Z,2.47
2023-05-12T12:45:46.717Z,2.73
2023-05-12T12:48:15.515Z,2.30
2023-05-12T12:50:43.771Z,2.60
2023-05-12T12:53:11.813Z,2.50
2023-05-12T12:55:39.921Z,2.30
2023-05-12T12:58:07.772Z,2.50
2023-05-12T13:00:37.690Z,2.47
2023-05-12T13:03:08.271Z,2.13
2023-05-12T13:05:37.159Z,2.30
2023-05-12T13:08:05.530Z,2.30
2023-05-12T13:10:33.696Z,1.90
2023-05-12T13:13:02.162Z,1.80
2023-05-12T13:15:32.728Z,2.53
2023-05-12T13:18:00.963Z,2.53
2023-05-12T13:20:29.480Z,2.00
2023-05-12T13:22:59.624Z,1.73
2023-05-12T13:25:27.667Z,2.07
2023-05-12T13:27:55.686Z,1.90
2023-05-12T13:30:25.366Z,1.87
2023-05-12T13:32:53.496Z,1.70
2023-05-12T13:35:21.954Z,2.00
2023-05-12T13:38:00.112Z,2.10
2023-05-12T13:40:28.478Z,2.33
2023-05-12T13:42:57.173Z,3.13
2023-05-12T13:45:26.106Z,5.53
2023-05-12T13:47:54.443Z,1.90
2023-05-12T13:50:23.079Z,1.87
2023-05-12T13:52:51.186Z,1.90
2023-05-12T13:55:21.757Z,2.00
2023-05-12T13:57:50.308Z,2.17
2023-05-12T14:00:19.164Z,1.93
2023-05-12T14:02:47.267Z,1.70
2023-05-12T14:05:16.275Z,2.10
2023-05-12T14:07:44.724Z,2.00
2023-05-12T14:10:12.993Z,1.50
2023-05-12T14:12:43.226Z,1.70
2023-05-12T14:17:48.202Z,2.30
2023-05-12T14:20:16.834Z,2.17
2023-05-12T14:22:45.787Z,1.60
2023-05-12T14:25:17.117Z,2.10
2023-05-12T14:27:45.780Z,2.10
2023-05-12T14:30:18.293Z,1.90
2023-05-12T14:32:46.255Z,4.00
2023-05-12T14:35:14.314Z,2.17
2023-05-12T14:37:42.609Z,1.70
2023-05-12T14:40:12.485Z,1.93
2023-05-12T14:42:40.844Z,1.70
2023-05-12T14:45:10.291Z,2.00
2023-05-12T14:47:42.012Z,1.83
2023-05-12T14:50:11.029Z,2.10
2023-05-12T14:52:39.337Z,2.07
2023-05-12T14:55:12.386Z,2.40
2023-05-12T14:57:41.511Z,2.40
2023-05-12T15:00:12.120Z,2.43
2023-05-12T15:02:41.790Z,3.30
2023-05-12T15:05:11.962Z,2.30
2023-05-12T15:07:40.260Z,2.10
2023-05-12T15:10:08.992Z,2.70
2023-05-12T15:12:38.996Z,2.30
2023-05-12T15:15:09.165Z,3.83
2023-05-12T15:17:39.043Z,2.20
2023-05-12T15:20:08.449Z,2.00
2023-05-12T15:22:37.303Z,1.90
2023-05-12T15:25:05.912Z,2.10
2023-05-12T15:27:34.224Z,2.27
2023-05-12T15:30:03.491Z,2.40
2023-05-12T15:32:32.416Z,2.20
2023-05-12T15:35:00.451Z,2.10
2023-05-12T15:37:28.886Z,2.13
2023-05-12T15:39:56.772Z,1.77
2023-05-12T15:42:29.977Z,2.17
2023-05-12T15:45:01.021Z,2.07
2023-05-12T15:47:29.787Z,1.90
2023-05-12T15:49:58.485Z,2.00
2023-05-12T15:52:28.754Z,2.17
2023-05-12T15:54:56.937Z,2.03
2023-05-12T15:57:25.197Z,1.80
2023-05-12T16:00:00.317Z,1.70
2023-05-12T16:02:29.506Z,2.40
2023-05-12T16:04:57.628Z,1.87
2023-05-12T16:07:32.000Z,2.00
2023-05-12T16:10:00.323Z,1.80
2023-05-12T16:12:28.714Z,2.40
2023-05-12T16:14:56.940Z,2.20
2023-05-12T16:17:28.135Z,2.47
2023-05-12T16:19:58.618Z,2.33
2023-05-12T16:22:26.823Z,2.87
2023-05-12T16:24:56.997Z,2.37
2023-05-12T16:27:25.575Z,2.13
2023-05-12T16:29:57.227Z,2.10
2023-05-12T16:32:25.357Z,2.00
2023-05-12T16:34:53.593Z,1.93
2023-05-12T16:37:23.169Z,2.10
2023-05-12T16:39:51.123Z,2.20
2023-05-12T16:42:19.425Z,2.50
2023-05-12T16:44:48.237Z,1.90
2023-05-12T16:47:19.838Z,2.47
2023-05-12T16:49:47.875Z,2.17
2023-05-12T16:52:16.153Z,2.43
2023-05-12T16:54:44.263Z,3.90
2023-05-12T16:57:12.294Z,8.00
2023-05-12T16:59:40.470Z,38.93
2023-05-12T17:02:08.926Z,3.67
2023-05-12T17:04:38.058Z,3.00
2023-05-12T17:07:06.436Z,9.30
2023-05-12T17:09:34.367Z,5.70
2023-05-12T17:12:05.383Z,6.97
2023-05-12T17:14:35.071Z,7.43
2023-05-12T17:17:03.405Z,11.97
2023-05-12T17:19:33.835Z,15.37
2023-05-12T17:22:02.105Z,8.83
2023-05-12T17:24:30.727Z,7.40
2023-05-12T17:26:59.927Z,10.50
2023-05-12T17:29:28.944Z,9.43
2023-05-12T17:31:57.827Z,8.47
2023-05-12T17:34:25.920Z,6.20
2023-05-12T17:36:56.321Z,25.83
2023-05-12T17:39:24.384Z,13.20
2023-05-12T17:41:52.623Z,10.93
2023-05-12T17:44:20.912Z,10.77
2023-05-12T17:46:49.626Z,9.17
2023-05-12T17:49:17.727Z,8.37
2023-05-12T17:51:50.273Z,6.20
2023-05-12T17:54:18.296Z,8.97
2023-05-12T17:56:47.803Z,6.07
2023-05-12T17:59:16.268Z,6.23
2023-05-12T18:01:44.421Z,5.90
2023-05-12T18:04:12.995Z,6.73
2023-05-12T18:06:41.606Z,7.13
2023-05-12T18:09:10.364Z,6.87
2023-05-12T18:11:38.679Z,11.70
2023-05-12T18:14:07.528Z,19.60
2023-05-12T18:16:38.295Z,9.83
2023-05-12T18:19:06.768Z,10.10
2023-05-12T18:21:35.853Z,19.70
2023-05-12T18:24:05.056Z,19.00
2023-05-12T18:26:33.138Z,40.00
2023-05-12T18:29:01.135Z,22.23
2023-05-12T18:31:29.791Z,11.97
2023-05-12T18:33:58.006Z,18.87
2023-05-12T18:36:26.041Z,21.20
2023-05-12T18:38:54.381Z,21.57
2023-05-12T18:41:23.613Z,28.87
2023-05-12T18:43:52.036Z,24.53
2023-05-12T18:46:22.938Z,11.57
2023-05-12T18:48:51.384Z,35.27
2023-05-12T18:51:19.554Z,14.77
2023-05-12T18:53:48.729Z,11.90
2023-05-12T18:56:17.310Z,7.40
2023-05-12T18:58:46.881Z,11.47
2023-05-12T19:01:15.034Z,8.90
2023-05-12T19:03:45.492Z,16.73
2023-05-12T19:06:13.943Z,9.70
2023-05-12T19:08:56.274Z,23.47
2023-05-12T19:11:24.950Z,11.93
2023-05-12T19:13:53.240Z,10.97
2023-05-12T19:16:24.091Z,23.33
2023-05-12T19:18:52.208Z,21.03
2023-05-12T19:21:20.484Z,26.30
2023-05-12T19:23:49.100Z,28.63
2023-05-12T19:26:17.403Z,24.57
2023-05-12T19:28:45.665Z,12.60
2023-05-12T19:31:14.229Z,9.20
2023-05-12T19:33:42.469Z,11.43
2023-05-12T19:36:11.794Z,11.10
2023-05-12T19:38:43.943Z,7.43
2023-05-12T19:41:12.254Z,7.27
2023-05-12T19:43:40.773Z,8.30
2023-05-12T19:46:09.316Z,7.27
2023-05-12T19:48:38.189Z,6.70
2023-05-12T19:51:06.437Z,18.07
2023-05-12T19:53:35.237Z,8.23
2023-05-12T19:56:03.717Z,14.13
2023-05-12T19:58:31.818Z,8.63
2023-05-12T20:01:00.166Z,7.23
2023-05-12T20:03:28.670Z,6.70
2023-05-12T20:05:56.971Z,16.27
2023-05-12T20:08:25.447Z,8.17
2023-05-12T20:10:53.738Z,9.13
2023-05-12T20:13:22.194Z,7.83
2023-05-12T20:15:50.886Z,6.93
2023-05-12T20:18:21.954Z,8.33
2023-05-12T20:20:50.319Z,7.60
2023-05-12T20:23:18.460Z,7.03
2023-05-12T20:25:47.320Z,6.57
2023-05-12T20:28:15.895Z,5.93
2023-05-12T20:30:47.246Z,6.63
2023-05-12T20:33:18.708Z,7.47
2023-05-12T20:35:47.596Z,10.03
2023-05-12T20:38:16.284Z,9.90
2023-05-12T20:40:44.638Z,21.50
2023-05-12T20:43:14.693Z,10.50
2023-05-12T20:45:43.051Z,9.17
2023-05-12T20:48:11.883Z,7.90
2023-05-12T20:50:40.566Z,7.37
2023-05-12T20:53:09.056Z,10.50
2023-05-12T20:55:37.103Z,7.77
2023-05-12T20:58:05.258Z,7.87
2023-05-12T21:00:33.941Z,7.10
2023-05-12T21:03:04.087Z,10.70
2023-05-12T21:05:32.752Z,7.17
2023-05-12T21:08:02.025Z,7.83
2023-05-12T21:10:32.589Z,8.77
2023-05-12T21:13:01.067Z,8.20
2023-05-12T21:15:29.638Z,8.43
2023-05-12T21:17:58.463Z,9.07
2023-05-12T21:20:26.475Z,7.10
2023-05-12T21:22:57.302Z,8.40
2023-05-12T21:25:25.609Z,8.57
2023-05-12T21:27:53.759Z,8.60
2023-05-12T21:30:22.116Z,8.70
2023-05-12T21:32:53.340Z,8.87
2023-05-12T21:35:21.102Z,8.57
2023-05-12T21:37:49.966Z,8.10
2023-05-12T21:40:17.973Z,8.70
2023-05-12T21:42:46.361Z,8.93
2023-05-12T21:45:15.599Z,12.80
2023-05-12T21:47:47.869Z,9.73
2023-05-12T21:50:17.061Z,9.33
2023-05-12T21:52:45.601Z,9.53
2023-05-12T21:55:15.158Z,9.97
2023-05-12T21:57:45.393Z,8.60
2023-05-12T22:00:20.517Z,9.50
2023-05-12T22:02:49.677Z,9.47
2023-05-12T22:05:18.068Z,8.70
2023-05-12T22:07:46.905Z,8.70
2023-05-12T22:10:24.167Z,8.70
2023-05-12T22:12:59.854Z,7.80
2023-05-12T22:15:31.136Z,9.33
2023-05-12T22:17:59.234Z,8.73
2023-05-12T22:20:30.408Z,8.27
2023-05-12T22:22:58.784Z,8.70
2023-05-12T22:25:26.829Z,10.70
2023-05-12T22:27:55.197Z,11.17
2023-05-12T22:30:32.156Z,9.10
2023-05-12T22:33:05.932Z,8.20
2023-05-12T22:35:43.746Z,9.50
2023-05-12T22:38:14.923Z,8.60
2023-05-12T22:40:46.804Z,9.07
2023-05-12T22:43:15.606Z,9.20
2023-05-12T22:45:51.518Z,9.57
2023-05-12T22:48:20.823Z,9.23
2023-05-12T22:50:54.512Z,9.60
2023-05-12T22:53:22.736Z,9.80
2023-05-12T22:55:50.783Z,10.63
2023-05-12T22:58:28.941Z,9.50
2023-05-12T23:00:56.667Z,9.90
2023-05-12T23:03:31.185Z,11.70
2023-05-12T23:06:19.882Z,9.73
2023-05-12T23:08:48.451Z,10.00
2023-05-12T23:11:16.605Z,10.57
2023-05-12T23:13:44.507Z,10.50
2023-05-12T23:16:12.950Z,10.57
2023-05-12T23:18:41.260Z,12.27
2023-05-12T23:21:09.456Z,11.80
2023-05-12T23:23:40.154Z,12.37
2023-05-12T23:26:08.301Z,11.70
2023-05-12T23:28:40.140Z,13.17
2023-05-12T23:31:11.097Z,10.80
2023-05-12T23:33:43.151Z,12.87
2023-05-12T23:36:15.473Z,10.77
2023-05-12T23:38:43.501Z,10.63
2023-05-12T23:41:11.723Z,11.50
2023-05-12T23:43:39.750Z,12.73
2023-05-12T23:46:07.821Z,11.80
2023-05-12T23:48:37.740Z,9.83
2023-05-12T23:51:06.459Z,9.93
2023-05-12T23:53:34.884Z,11.00
2023-05-12T23:56:02.833Z,10.47
2023-05-12T23:58:31.536Z,9.63
